createdAt,value
2023-02-22T00:01:35.961Z,11.20
2023-02-22T00:04:06.462Z,11.20
2023-02-22T00:06:34.059Z,11.20
2023-02-22T00:09:02.643Z,11.10
2023-02-22T00:11:31.482Z,11.10
2023-02-22T00:13:58.662Z,11.10
2023-02-22T00:16:26.578Z,11.10
2023-02-22T00:18:54.298Z,11.00
2023-02-22T00:21:22.212Z,11.00
2023-02-22T00:23:50.110Z,11.00
2023-02-22T00:26:20.373Z,11.00
2023-02-22T00:28:53.664Z,11.00
2023-02-22T00:31:21.570Z,11.00
2023-02-22T00:33:49.689Z,10.90
2023-02-22T00:36:17.509Z,11.00
2023-02-22T00:38:44.397Z,10.90
2023-02-22T00:41:12.146Z,11.00
2023-02-22T00:43:39.047Z,10.90
2023-02-22T00:46:06.026Z,10.90
2023-02-22T00:48:32.942Z,10.90
2023-02-22T00:50:59.834Z,10.90
2023-02-22T00:53:26.826Z,10.90
2023-02-22T00:55:54.247Z,10.90
2023-02-22T00:58:22.114Z,10.90
2023-02-22T01:00:50.470Z,10.90
2023-02-22T01:03:20.286Z,10.90
2023-02-22T01:05:47.892Z,10.90
2023-02-22T01:08:17.114Z,10.90
2023-02-22T01:10:44.542Z,10.80
2023-02-22T01:13:12.913Z,10.80
2023-02-22T01:15:42.949Z,10.80
2023-02-22T01:18:12.601Z,10.80
2023-02-22T01:20:39.531Z,10.80
2023-02-22T01:23:08.131Z,10.80
2023-02-22T01:25:35.941Z,10.70
2023-02-22T01:28:05.060Z,10.70
2023-02-22T01:30:35.354Z,10.70
2023-02-22T01:33:06.338Z,10.70
2023-02-22T01:35:36.917Z,10.70
2023-02-22T01:38:03.983Z,10.60
2023-02-22T01:40:37.767Z,10.60
2023-02-22T01:43:22.354Z,10.60
2023-02-22T01:46:03.985Z,10.60
2023-02-22T01:49:10.317Z,10.50
2023-02-22T01:51:44.095Z,10.50
2023-02-22T01:54:27.052Z,10.40
2023-02-22T01:57:29.976Z,10.40
2023-02-22T02:00:10.040Z,10.30
2023-02-22T02:02:46.622Z,10.30
2023-02-22T02:05:14.016Z,10.30
2023-02-22T02:07:41.452Z,10.20
2023-02-22T02:10:14.328Z,10.20
2023-02-22T02:12:49.159Z,10.20
2023-02-22T02:15:31.182Z,10.10
2023-02-22T02:18:06.570Z,10.10
2023-02-22T02:20:52.960Z,10.00
2023-02-22T02:24:31.131Z,10.00
2023-02-22T02:27:27.398Z,9.90
2023-02-22T02:30:41.974Z,9.80
2023-02-22T02:33:32.422Z,9.80
2023-02-22T02:36:20.069Z,9.70
2023-02-22T02:39:27.631Z,9.70
2023-02-22T02:41:58.649Z,9.60
2023-02-22T02:45:15.398Z,9.50
2023-02-22T02:47:48.391Z,9.50
2023-02-22T02:50:27.477Z,9.40
2023-02-22T02:52:58.791Z,9.40
2023-02-22T02:55:30.278Z,9.30
2023-02-22T02:57:57.210Z,9.20
2023-02-22T03:00:30.137Z,9.10
2023-02-22T03:03:45.197Z,9.00
2023-02-22T03:06:41.115Z,9.00
2023-02-22T03:09:29.766Z,8.90
2023-02-22T03:12:22.353Z,8.90
2023-02-22T03:15:26.856Z,8.80
2023-02-22T03:18:29.022Z,8.80
2023-02-22T03:21:27.108Z,8.70
2023-02-22T03:24:14.650Z,8.60
2023-02-22T03:27:02.830Z,8.60
2023-02-22T03:29:36.653Z,8.50
2023-02-22T03:32:10.116Z,8.50
2023-02-22T03:34:52.952Z,8.40
2023-02-22T03:37:35.420Z,8.40
2023-02-22T03:40:14.035Z,8.30
2023-02-22T03:42:55.699Z,8.30
2023-02-22T03:45:27.339Z,8.20
2023-02-22T03:48:10.235Z,8.20
2023-02-22T03:50:38.381Z,8.10
2023-02-22T03:53:07.503Z,8.10
2023-02-22T03:55:36.910Z,8.00
2023-02-22T03:58:11.051Z,8.00
2023-02-22T04:00:39.090Z,7.90
2023-02-22T04:03:06.194Z,7.90
2023-02-22T04:05:33.315Z,7.90
2023-02-22T04:08:00.236Z,7.80
2023-02-22T04:10:27.832Z,7.80
2023-02-22T04:12:54.713Z,7.70
2023-02-22T04:15:24.504Z,7.70
2023-02-22T04:17:55.768Z,7.60
2023-02-22T04:20:25.525Z,7.60
2023-02-22T04:22:56.518Z,7.60
2023-02-22T04:25:24.494Z,7.50
2023-02-22T04:27:52.820Z,7.50
2023-02-22T04:30:26.337Z,7.50
2023-02-22T04:32:53.414Z,7.40
2023-02-22T04:35:21.750Z,7.40
2023-02-22T04:37:48.648Z,7.40
2023-02-22T04:40:18.845Z,7.40
2023-02-22T04:42:47.572Z,7.30
2023-02-22T04:45:14.751Z,7.30
2023-02-22T04:47:41.701Z,7.20
2023-02-22T04:50:11.515Z,7.20
2023-02-22T04:52:38.433Z,7.20
2023-02-22T04:55:06.387Z,7.10
2023-02-22T04:57:34.013Z,7.10
2023-02-22T05:00:00.912Z,7.10
2023-02-22T05:02:28.240Z,7.10
2023-02-22T05:04:55.226Z,7.10
2023-02-22T05:07:22.148Z,7.00
2023-02-22T05:09:49.693Z,7.00
2023-02-22T05:12:16.570Z,7.00
2023-02-22T05:14:44.478Z,7.00
2023-02-22T05:17:11.366Z,6.90
2023-02-22T05:19:38.283Z,6.90
2023-02-22T05:22:05.690Z,6.90
2023-02-22T05:24:32.662Z,6.90
2023-02-22T05:26:59.625Z,6.80
2023-02-22T05:29:26.786Z,6.80
2023-02-22T05:31:53.766Z,6.80
2023-02-22T05:34:20.696Z,6.80
2023-02-22T05:36:47.588Z,6.70
2023-02-22T05:39:14.524Z,6.70
2023-02-22T05:41:41.407Z,6.70
2023-02-22T05:44:08.340Z,6.70
2023-02-22T05:46:35.277Z,6.70
2023-02-22T05:49:02.226Z,6.60
2023-02-22T05:51:29.110Z,6.60
2023-02-22T05:53:55.977Z,6.60
2023-02-22T05:56:25.337Z,6.60
2023-02-22T05:58:52.906Z,6.60
2023-02-22T06:01:20.801Z,6.50
2023-02-22T06:03:49.662Z,6.50
2023-02-22T06:06:17.699Z,6.50
2023-02-22T06:08:45.015Z,6.50
2023-02-22T06:11:12.303Z,6.50
2023-02-22T06:13:39.799Z,6.40
2023-02-22T06:16:08.248Z,6.40
2023-02-22T06:18:35.190Z,6.40
2023-02-22T06:21:02.107Z,6.40
2023-02-22T06:23:29.062Z,6.30
2023-02-22T06:25:55.996Z,6.30
2023-02-22T06:28:23.725Z,6.30
2023-02-22T06:30:50.760Z,6.20
2023-02-22T06:33:17.637Z,6.20
2023-02-22T06:35:45.218Z,6.20
2023-02-22T06:38:12.096Z,6.20
2023-02-22T06:40:39.038Z,6.20
2023-02-22T06:43:06.030Z,6.20
2023-02-22T06:45:32.966Z,6.20
2023-02-22T06:47:59.964Z,6.20
2023-02-22T06:50:30.232Z,6.20
2023-02-22T06:52:57.888Z,6.20
2023-02-22T06:55:30.765Z,6.20
2023-02-22T06:57:57.855Z,6.20
2023-02-22T07:00:26.934Z,6.20
2023-02-22T07:02:54.560Z,6.20
2023-02-22T07:05:23.547Z,6.20
2023-02-22T07:07:53.353Z,6.20
2023-02-22T07:10:24.831Z,6.30
2023-02-22T07:12:54.802Z,6.30
2023-02-22T07:15:24.792Z,6.30
2023-02-22T07:17:52.673Z,6.30
2023-02-22T07:20:21.584Z,6.30
2023-02-22T07:22:50.546Z,6.30
2023-02-22T07:25:18.930Z,6.30
2023-02-22T07:27:46.729Z,6.40
2023-02-22T07:30:31.243Z,6.40
2023-02-22T07:33:01.371Z,6.40
2023-02-22T07:35:33.938Z,6.50
2023-02-22T07:38:00.889Z,6.50
2023-02-22T07:40:28.071Z,6.60
2023-02-22T07:42:59.584Z,6.60
2023-02-22T07:45:32.730Z,6.60
2023-02-22T07:48:01.373Z,6.70
2023-02-22T07:50:31.108Z,6.80
2023-02-22T07:53:01.414Z,6.80
2023-02-22T07:55:30.174Z,6.80
2023-02-22T07:58:00.482Z,6.90
2023-02-22T08:00:31.876Z,7.00
2023-02-22T08:03:02.051Z,7.00
2023-02-22T08:05:30.816Z,7.10
2023-02-22T08:07:58.025Z,7.20
2023-02-22T08:10:26.446Z,7.20
2023-02-22T08:12:54.567Z,7.30
2023-02-22T08:15:29.626Z,7.40
2023-02-22T08:17:58.685Z,7.50
2023-02-22T08:20:26.475Z,7.50
2023-02-22T08:22:54.129Z,7.60
2023-02-22T08:25:25.464Z,7.70
2023-02-22T08:27:52.892Z,7.80
2023-02-22T08:30:23.558Z,7.80
2023-02-22T08:32:51.635Z,7.90
2023-02-22T08:35:20.717Z,8.00
2023-02-22T08:37:52.179Z,8.10
2023-02-22T08:40:22.403Z,8.10
2023-02-22T08:42:49.728Z,8.20
2023-02-22T08:45:17.307Z,8.30
2023-02-22T08:47:44.324Z,8.40
2023-02-22T08:50:25.527Z,8.50
2023-02-22T08:52:55.557Z,8.60
2023-02-22T08:55:24.835Z,8.60
2023-02-22T08:57:51.731Z,8.70
2023-02-22T09:00:20.279Z,8.80
2023-02-22T09:02:47.344Z,8.90
2023-02-22T09:05:14.223Z,8.90
2023-02-22T09:07:42.474Z,9.00
2023-02-22T09:10:15.481Z,9.10
2023-02-22T09:12:42.976Z,9.20
2023-02-22T09:15:11.161Z,9.20
2023-02-22T09:17:38.246Z,9.30
2023-02-22T09:20:08.311Z,9.40
2023-02-22T09:22:35.225Z,9.40
2023-02-22T09:25:11.366Z,9.50
2023-02-22T09:27:40.256Z,9.50
2023-02-22T09:30:11.506Z,9.60
2023-02-22T09:32:38.566Z,9.70
2023-02-22T09:35:08.587Z,9.70
2023-02-22T09:37:35.507Z,9.80
2023-02-22T09:40:02.490Z,9.90
2023-02-22T09:42:41.771Z,10.00
2023-02-22T09:45:19.420Z,10.20
2023-02-22T09:47:56.431Z,10.30
2023-02-22T09:50:31.735Z,10.50
2023-02-22T09:53:31.125Z,10.60
2023-02-22T09:56:07.212Z,10.80
2023-02-22T09:58:41.713Z,10.90
2023-02-22T10:01:32.789Z,11.00
2023-02-22T10:04:34.425Z,11.20
2023-02-22T10:07:16.032Z,11.30
2023-02-22T10:09:44.963Z,11.50
2023-02-22T10:12:32.205Z,11.60
2023-02-22T10:15:32.186Z,11.80
2023-02-22T10:18:36.577Z,11.90
2023-02-22T10:21:45.973Z,12.10
2023-02-22T10:24:45.534Z,12.20
2023-02-22T10:27:34.049Z,12.40
2023-02-22T10:30:34.190Z,12.50
2023-02-22T10:33:26.586Z,12.70
2023-02-22T10:35:55.317Z,12.70
2023-02-22T10:38:34.342Z,12.80
2023-02-22T10:41:20.796Z,12.80
2023-02-22T10:43:47.644Z,12.80
2023-02-22T10:46:19.320Z,12.90
2023-02-22T10:48:52.038Z,12.90
2023-02-22T10:51:18.893Z,13.00
2023-02-22T10:53:56.257Z,13.00
2023-02-22T10:56:27.508Z,13.10
2023-02-22T10:58:59.564Z,13.20
2023-02-22T11:01:32.492Z,13.20
2023-02-22T11:04:23.689Z,13.20
2023-02-22T11:06:59.509Z,13.20
2023-02-22T11:09:28.935Z,13.30
2023-02-22T11:12:11.504Z,13.30
2023-02-22T11:14:39.047Z,13.40
2023-02-22T11:17:10.620Z,13.50
2023-02-22T11:19:39.040Z,13.50
2023-02-22T11:22:05.803Z,13.60
2023-02-22T11:24:48.531Z,13.70
2023-02-22T11:27:32.422Z,13.80
2023-02-22T11:30:22.433Z,13.90
2023-02-22T11:33:00.800Z,14.00
2023-02-22T11:35:40.254Z,14.10
2023-02-22T11:38:36.778Z,14.20
2023-02-22T11:41:11.582Z,14.30
2023-02-22T11:43:38.423Z,14.40
2023-02-22T11:46:31.310Z,14.40
2023-02-22T11:49:08.801Z,14.40
2023-02-22T11:52:22.493Z,14.50
2023-02-22T11:55:36.389Z,14.50
2023-02-22T11:58:50.058Z,14.60
2023-02-22T12:01:46.481Z,14.60
2023-02-22T12:05:02.469Z,14.60
2023-02-22T12:08:00.053Z,14.50
2023-02-22T12:11:06.336Z,14.50
2023-02-22T12:14:08.380Z,14.40
2023-02-22T12:16:50.506Z,14.30
2023-02-22T12:19:36.364Z,14.30
2023-02-22T12:22:25.952Z,14.30
2023-02-22T12:25:16.071Z,14.30
2023-02-22T12:27:58.973Z,14.30
2023-02-22T12:30:31.977Z,14.30
2023-02-22T12:33:14.365Z,14.30
2023-02-22T12:35:50.021Z,14.20
2023-02-22T12:38:31.326Z,14.20
2023-02-22T12:41:18.953Z,14.20
2023-02-22T12:43:53.865Z,14.10
2023-02-22T12:46:46.571Z,14.10
2023-02-22T12:49:43.029Z,14.00
2023-02-22T12:52:42.333Z,13.90
2023-02-22T12:55:25.173Z,13.90
2023-02-22T12:58:18.069Z,13.90
2023-02-22T13:01:07.052Z,13.90
2023-02-22T13:03:42.580Z,13.90
2023-02-22T13:07:23.014Z,14.00
2023-02-22T13:10:08.073Z,14.00
2023-02-22T13:12:57.461Z,13.90
2023-02-22T13:16:00.241Z,14.00
2023-02-22T13:19:14.136Z,14.00
2023-02-22T13:21:58.067Z,13.90
2023-02-22T13:25:15.381Z,13.90
2023-02-22T13:27:48.701Z,13.90
2023-02-22T13:30:34.380Z,13.90
2023-02-22T13:33:43.134Z,13.90
2023-02-22T13:36:38.506Z,13.90
2023-02-22T13:39:54.686Z,13.80
2023-02-22T13:42:36.655Z,13.70
2023-02-22T13:45:40.052Z,13.70
2023-02-22T13:48:15.634Z,13.60
2023-02-22T13:51:49.269Z,13.60
2023-02-22T13:54:40.877Z,13.60
2023-02-22T13:57:34.050Z,13.60
2023-02-22T14:00:16.214Z,13.60
2023-02-22T14:03:08.605Z,13.50
2023-02-22T14:05:41.617Z,13.50
2023-02-22T14:08:28.800Z,13.50
2023-02-22T14:11:31.642Z,13.60
2023-02-22T14:14:00.941Z,13.50
2023-02-22T14:16:32.133Z,13.50
2023-02-22T14:19:09.191Z,13.50
2023-02-22T14:21:36.196Z,13.60
2023-02-22T14:24:21.247Z,13.60
2023-02-22T14:27:01.736Z,13.60
2023-02-22T14:29:28.623Z,13.60
2023-02-22T14:32:08.217Z,13.60
2023-02-22T14:35:14.312Z,13.60
2023-02-22T14:37:54.560Z,13.60
2023-02-22T14:40:30.193Z,13.60
2023-02-22T14:43:19.811Z,13.50
2023-02-22T14:45:53.492Z,13.50
2023-02-22T14:48:42.877Z,13.40
2023-02-22T14:51:22.330Z,13.40
2023-02-22T14:53:56.723Z,13.30
2023-02-22T14:56:28.779Z,13.30
2023-02-22T14:59:15.855Z,13.30
2023-02-22T15:01:58.413Z,13.20
2023-02-22T15:04:31.192Z,13.10
2023-02-22T15:07:01.103Z,13.10
2023-02-22T15:09:37.280Z,13.10
2023-02-22T15:12:03.999Z,13.00
2023-02-22T15:14:38.788Z,13.00
2023-02-22T15:17:13.621Z,13.00
2023-02-22T15:19:42.324Z,13.00
2023-02-22T15:22:26.533Z,13.00
2023-02-22T15:25:07.413Z,12.90
2023-02-22T15:27:37.086Z,13.00
2023-02-22T15:30:20.065Z,12.90
2023-02-22T15:33:02.654Z,12.90
2023-02-22T15:35:32.864Z,12.80
2023-02-22T15:38:11.517Z,12.80
2023-02-22T15:40:43.003Z,12.80
2023-02-22T15:43:25.208Z,12.80
2023-02-22T15:45:52.685Z,12.80
2023-02-22T15:48:19.858Z,12.80
2023-02-22T15:51:07.091Z,12.70
2023-02-22T15:53:40.140Z,12.70
2023-02-22T15:56:19.455Z,12.70
2023-02-22T15:58:48.028Z,12.70
2023-02-22T16:01:19.088Z,12.70
2023-02-22T16:03:48.173Z,12.60
2023-02-22T16:06:21.143Z,12.60
2023-02-22T16:08:55.424Z,12.50
2023-02-22T16:11:43.265Z,12.50
2023-02-22T16:14:36.523Z,12.40
2023-02-22T16:17:24.749Z,12.40
2023-02-22T16:19:52.671Z,12.30
2023-02-22T16:22:37.786Z,12.30
2023-02-22T16:25:19.706Z,12.30
2023-02-22T16:27:55.791Z,12.30
2023-02-22T16:30:39.931Z,12.20
2023-02-22T16:33:13.563Z,12.20
2023-02-22T16:35:41.124Z,12.20
2023-02-22T16:38:16.901Z,12.10
2023-02-22T16:40:55.060Z,12.10
2023-02-22T16:43:26.310Z,12.00
2023-02-22T16:45:53.369Z,12.00
2023-02-22T16:48:22.481Z,11.90
2023-02-22T16:50:51.532Z,11.90
2023-02-22T16:53:22.883Z,11.80
2023-02-22T16:55:57.472Z,11.80
2023-02-22T16:58:27.898Z,11.80
2023-02-22T17:00:57.294Z,11.80
2023-02-22T17:03:25.287Z,11.70
2023-02-22T17:05:52.546Z,11.70
2023-02-22T17:08:19.526Z,11.70
2023-02-22T17:10:46.449Z,11.70
2023-02-22T17:13:23.044Z,11.70
2023-02-22T17:15:51.662Z,11.70
2023-02-22T17:18:23.185Z,11.70
2023-02-22T17:20:53.995Z,11.60
2023-02-22T17:23:22.514Z,11.60
2023-02-22T17:25:59.230Z,11.50
2023-02-22T17:28:26.724Z,11.50
2023-02-22T17:30:55.569Z,11.50
2023-02-22T17:33:27.265Z,11.50
2023-02-22T17:35:57.637Z,11.40
2023-02-22T17:38:26.938Z,11.40
2023-02-22T17:40:54.748Z,11.30
2023-02-22T17:43:22.179Z,11.30
2023-02-22T17:45:49.438Z,11.30
2023-02-22T17:48:18.038Z,11.30
2023-02-22T17:50:46.718Z,11.30
2023-02-22T17:53:14.096Z,11.30
2023-02-22T17:55:42.716Z,11.20
2023-02-22T17:58:14.623Z,11.20
2023-02-22T18:00:51.561Z,11.20
2023-02-22T18:03:25.686Z,11.10
2023-02-22T18:05:59.573Z,11.10
2023-02-22T18:08:31.017Z,11.10
2023-02-22T18:10:58.917Z,11.10
2023-02-22T18:13:27.797Z,11.10
2023-02-22T18:15:59.952Z,11.10
2023-02-22T18:18:27.175Z,11.00
2023-02-22T18:20:59.259Z,11.00
2023-02-22T18:23:29.099Z,11.00
2023-02-22T18:26:09.768Z,10.90
2023-02-22T18:28:37.456Z,10.90
2023-02-22T18:31:17.075Z,10.90
2023-02-22T18:33:46.573Z,10.90
2023-02-22T18:36:14.624Z,10.80
2023-02-22T18:38:43.462Z,10.80
2023-02-22T18:41:16.096Z,10.80
2023-02-22T18:43:43.680Z,10.80
2023-02-22T18:46:18.276Z,10.80
2023-02-22T18:48:51.650Z,10.80
2023-02-22T18:51:18.532Z,10.70
2023-02-22T18:53:47.686Z,10.70
2023-02-22T18:56:21.590Z,10.70
2023-02-22T18:58:54.018Z,10.70
2023-02-22T19:01:21.975Z,10.70
2023-02-22T19:03:49.299Z,10.70
2023-02-22T19:06:18.029Z,10.70
2023-02-22T19:08:47.052Z,10.70
2023-02-22T19:11:22.018Z,10.70
2023-02-22T19:13:52.594Z,10.60
2023-02-22T19:16:22.616Z,10.70
2023-02-22T19:18:52.493Z,10.70
2023-02-22T19:21:20.303Z,10.70
2023-02-22T19:23:48.590Z,10.70
2023-02-22T19:26:20.458Z,10.60
2023-02-22T19:28:48.350Z,10.60
2023-02-22T19:31:22.786Z,10.60
2023-02-22T19:33:52.972Z,10.60
2023-02-22T19:36:23.002Z,10.60
2023-02-22T19:38:50.127Z,10.60
2023-02-22T19:41:21.748Z,10.60
2023-02-22T19:43:51.771Z,10.60
2023-02-22T19:46:22.550Z,10.60
2023-02-22T19:48:50.931Z,10.60
2023-02-22T19:51:20.515Z,10.50
2023-02-22T19:53:47.579Z,10.50
2023-02-22T19:56:20.833Z,10.40
2023-02-22T19:58:50.155Z,10.50
2023-02-22T20:01:27.608Z,10.40
2023-02-22T20:04:00.504Z,10.40
2023-02-22T20:06:41.705Z,10.30
2023-02-22T20:09:12.955Z,10.30
2023-02-22T20:11:39.936Z,10.30
2023-02-22T20:14:06.974Z,10.30
2023-02-22T20:16:35.084Z,10.20
2023-02-22T20:19:02.064Z,10.20
2023-02-22T20:21:32.652Z,10.20
2023-02-22T20:24:04.642Z,10.20
2023-02-22T20:26:33.745Z,10.10
2023-02-22T20:29:00.740Z,10.10
2023-02-22T20:31:29.553Z,10.10
2023-02-22T20:34:06.266Z,10.10
2023-02-22T20:36:35.166Z,10.10
2023-02-22T20:39:07.381Z,10.10
2023-02-22T20:41:35.743Z,10.10
2023-02-22T20:44:06.820Z,10.00
2023-02-22T20:46:36.862Z,10.00
2023-02-22T20:49:11.533Z,10.00
2023-02-22T20:51:42.132Z,10.00
2023-02-22T20:54:12.075Z,10.00
2023-02-22T20:56:42.253Z,10.00
2023-02-22T20:59:15.990Z,10.00
2023-02-22T21:01:43.681Z,9.90
2023-02-22T21:04:11.425Z,9.90
2023-02-22T21:06:39.587Z,9.90
2023-02-22T21:09:12.900Z,9.90
2023-02-22T21:11:40.172Z,9.90
2023-02-22T21:14:07.102Z,9.90
2023-02-22T21:16:36.988Z,9.90
2023-02-22T21:19:08.283Z,9.80
2023-02-22T21:21:35.895Z,9.80
2023-02-22T21:24:02.805Z,9.80
2023-02-22T21:26:33.414Z,9.80
2023-02-22T21:29:04.639Z,9.80
2023-02-22T21:31:33.217Z,9.70
2023-02-22T21:34:01.372Z,9.70
2023-02-22T21:36:28.935Z,9.70
2023-02-22T21:39:08.313Z,9.70
2023-02-22T21:41:38.680Z,9.70
2023-02-22T21:44:07.035Z,9.70
2023-02-22T21:46:33.926Z,9.70
2023-02-22T21:49:00.816Z,9.70
2023-02-22T21:51:31.384Z,9.70
2023-02-22T21:54:01.285Z,9.70
2023-02-22T21:56:31.383Z,9.60
2023-02-22T21:59:27.058Z,9.60
2023-02-22T22:01:56.325Z,9.60
2023-02-22T22:04:29.227Z,9.60
2023-02-22T22:06:59.320Z,9.50
2023-02-22T22:09:32.525Z,9.50
2023-02-22T22:12:02.988Z,9.40
2023-02-22T22:14:31.006Z,9.50
2023-02-22T22:17:00.137Z,9.50
2023-02-22T22:19:29.316Z,9.50
2023-02-22T22:22:00.356Z,9.40
2023-02-22T22:24:31.971Z,9.40
2023-02-22T22:27:03.546Z,9.40
2023-02-22T22:29:32.253Z,9.40
2023-02-22T22:31:59.816Z,9.30
2023-02-22T22:34:29.452Z,9.30
2023-02-22T22:37:00.279Z,9.30
2023-02-22T22:39:27.394Z,9.30
2023-02-22T22:41:54.330Z,9.30
2023-02-22T22:44:22.349Z,9.30
2023-02-22T22:46:53.396Z,9.20
2023-02-22T22:49:20.625Z,9.20
2023-02-22T22:51:48.165Z,9.20
2023-02-22T22:54:15.085Z,9.20
2023-02-22T22:56:41.980Z,9.10
2023-02-22T22:59:10.640Z,9.10
2023-02-22T23:01:41.092Z,9.10
2023-02-22T23:04:12.458Z,9.00
2023-02-22T23:06:50.466Z,9.00
2023-02-22T23:09:25.386Z,9.00
2023-02-22T23:11:55.864Z,8.90
2023-02-22T23:14:32.050Z,8.90
2023-02-22T23:17:03.367Z,8.90
2023-02-22T23:19:32.708Z,8.80
2023-02-22T23:21:59.840Z,8.80
2023-02-22T23:24:27.517Z,8.80
2023-02-22T23:26:59.838Z,8.70
2023-02-22T23:29:29.791Z,8.70
2023-02-22T23:31:56.750Z,8.70
2023-02-22T23:34:23.711Z,8.70
2023-02-22T23:36:54.198Z,8.60
2023-02-22T23:39:22.968Z,8.60
2023-02-22T23:41:52.165Z,8.60
2023-02-22T23:44:19.772Z,8.50
2023-02-22T23:46:48.839Z,8.50
2023-02-22T23:49:20.656Z,8.50
2023-02-22T23:51:48.844Z,8.40
2023-02-22T23:54:19.456Z,8.40
2023-02-22T23:56:56.133Z,8.40
2023-02-22T23:59:25.176Z,8.40
